Time;durP1;ratioP1;P1;durP2;ratioP2;P2;SDS_P1;SDS_P2;PMS_P1;PMS_P2;Temp;Humidity;BMP_temperature;BMP_pressure;BME280_temperature;BME280_humidity;BME280_pressure;Samples;Min_cycle;Max_cycle;Signal;HPM_P1;HPM_P2
2022/03/25 00:00:33;;;;;;;207.23;103.13;;;3.60;1.00;;;;;;5056550;28;20041;-76
2022/03/25 00:03:01;;;;;;;206.38;101.95;;;3.50;1.00;;;;;;5074343;28;20040;-76
2022/03/25 00:05:28;;;;;;;207.98;101.85;;;3.40;1.00;;;;;;5069427;28;20098;-76
2022/03/25 00:07:56;;;;;;;200.30;94.72;;;3.40;1.00;;;;;;5094868;28;20115;-76
2022/03/25 00:10:24;;;;;;;182.48;89.55;;;3.40;1.00;;;;;;5076582;28;20051;-76
2022/03/25 00:12:53;;;;;;;181.38;92.47;;;3.40;1.00;;;;;;5076440;28;20048;-75
2022/03/25 00:15:22;;;;;;;192.07;91.80;;;3.40;1.00;;;;;;5075673;28;20048;-76
2022/03/25 00:17:49;;;;;;;193.65;94.75;;;3.40;1.00;;;;;;5094497;28;20044;-75
2022/03/25 00:20:17;;;;;;;183.50;91.20;;;3.50;1.00;;;;;;5075439;28;20044;-75
2022/03/25 00:22:45;;;;;;;194.13;97.03;;;3.40;1.00;;;;;;5067582;28;20507;-75
2022/03/25 00:25:13;;;;;;;184.80;93.25;;;3.50;1.00;;;;;;5075253;28;20146;-75
2022/03/25 00:27:41;;;;;;;180.43;91.45;;;3.50;1.00;;;;;;5092250;28;20062;-75
2022/03/25 00:30:11;;;;;;;175.15;86.28;;;3.50;1.00;;;;;;5086256;28;20044;-75
2022/03/25 00:32:40;;;;;;;183.38;89.43;;;3.50;1.00;;;;;;5075888;28;20052;-75
2022/03/25 00:35:11;;;;;;;164.38;81.18;;;3.50;1.00;;;;;;5076190;28;20044;-75
2022/03/25 00:37:40;;;;;;;153.55;78.10;;;3.40;1.00;;;;;;5075841;28;20063;-75
2022/03/25 00:40:09;;;;;;;154.25;78.60;;;3.40;1.00;;;;;;5067490;28;20047;-75
2022/03/25 00:42:37;;;;;;;154.32;82.32;;;3.30;1.00;;;;;;5075899;28;20557;-75
2022/03/25 00:45:07;;;;;;;149.48;76.90;;;3.20;1.00;;;;;;5075935;28;20036;-75
2022/03/25 00:47:38;;;;;;;155.27;79.40;;;3.20;1.00;;;;;;5076213;28;20056;-75
2022/03/25 00:50:06;;;;;;;142.43;73.63;;;3.10;1.00;;;;;;5094448;28;20048;-75
2022/03/25 00:52:34;;;;;;;142.15;73.35;;;3.00;1.00;;;;;;5094353;28;20068;-75
2022/03/25 00:55:01;;;;;;;140.43;71.45;;;3.00;1.00;;;;;;5076598;28;20056;-75
2022/03/25 00:57:29;;;;;;;133.27;68.07;;;2.90;1.00;;;;;;5075439;28;20121;-75
2022/03/25 00:59:57;;;;;;;127.93;67.20;;;2.80;1.00;;;;;;5076045;28;20067;-75
2022/03/25 01:02:25;;;;;;;140.38;70.10;;;2.80;1.00;;;;;;5094728;28;20044;-76
2022/03/25 01:04:54;;;;;;;143.18;73.35;;;2.90;1.00;;;;;;5088609;28;20131;-75
2022/03/25 01:07:22;;;;;;;140.18;69.82;;;3.00;1.00;;;;;;5092758;28;20048;-75
2022/03/25 01:09:49;;;;;;;140.38;72.07;;;3.00;1.00;;;;;;5094640;28;20050;-74
2022/03/25 01:12:17;;;;;;;135.10;71.85;;;3.10;1.00;;;;;;5095056;28;20048;-75
2022/03/25 01:14:47;;;;;;;140.68;71.32;;;3.10;1.00;;;;;;5093660;28;20107;-75
2022/03/25 01:17:15;;;;;;;170.13;83.55;;;3.10;1.00;;;;;;5103999;28;20467;-75
2022/03/25 01:19:44;;;;;;;167.10;82.45;;;3.10;1.00;;;;;;5092876;28;20047;-75
2022/03/25 01:22:13;;;;;;;164.40;81.75;;;3.00;1.00;;;;;;5094162;28;20036;-75
2022/03/25 01:24:41;;;;;;;157.50;78.82;;;3.00;1.00;;;;;;5075468;28;20055;-75
2022/03/25 01:27:09;;;;;;;167.90;78.00;;;3.00;1.00;;;;;;5074872;28;20052;-75
2022/03/25 01:29:37;;;;;;;166.18;79.82;;;2.90;1.00;;;;;;5084119;28;20392;-75
2022/03/25 01:32:06;;;;;;;163.00;79.93;;;2.80;1.00;;;;;;5075600;28;20089;-75
2022/03/25 01:34:34;;;;;;;160.45;82.60;;;2.80;1.00;;;;;;5092314;28;20526;-75
2022/03/25 01:37:03;;;;;;;163.32;87.10;;;2.70;1.00;;;;;;5075589;28;20055;-75
2022/03/25 01:39:32;;;;;;;152.75;81.15;;;2.60;1.00;;;;;;5080599;28;20043;-76
2022/03/25 01:41:59;;;;;;;161.68;86.15;;;2.50;1.00;;;;;;5080623;28;20050;-75
2022/03/25 01:44:28;;;;;;;152.25;83.00;;;2.40;1.00;;;;;;5079696;28;20047;-75
2022/03/25 01:46:58;;;;;;;181.63;90.50;;;2.40;1.00;;;;;;5079873;28;20453;-75
2022/03/25 01:49:27;;;;;;;163.93;81.47;;;2.40;1.00;;;;;;5079959;28;20047;-75
2022/03/25 01:52:00;;;;;;;187.57;84.00;;;2.50;1.00;;;;;;5081344;28;20170;-75
2022/03/25 01:54:32;;;;;;;136.80;65.45;;;2.50;1.00;;;;;;5098303;28;20467;-75
2022/03/25 01:57:02;;;;;;;133.30;68.30;;;2.40;1.00;;;;;;5096326;28;20426;-75
2022/03/25 01:59:31;;;;;;;134.52;67.13;;;2.30;1.00;;;;;;5079490;28;20052;-75
2022/03/25 02:01:59;;;;;;;137.88;70.85;;;2.20;1.00;;;;;;5096547;28;20471;-75
2022/03/25 02:04:27;;;;;;;138.98;77.28;;;2.20;1.00;;;;;;5096190;28;20036;-75
2022/03/25 02:06:55;;;;;;;160.48;88.90;;;2.20;1.00;;;;;;5076088;28;20549;-75
2022/03/25 02:09:26;;;;;;;138.00;78.28;;;2.20;1.00;;;;;;5070247;28;20560;-75
2022/03/25 02:11:57;;;;;;;109.22;60.30;;;2.20;1.00;;;;;;5079480;28;20040;-75
2022/03/25 02:14:26;;;;;;;119.20;63.97;;;2.20;1.00;;;;;;5078772;28;20333;-75
2022/03/25 02:16:55;;;;;;;116.97;62.42;;;2.30;1.00;;;;;;5076496;28;20119;-75
2022/03/25 02:19:25;;;;;;;111.15;59.75;;;2.20;1.00;;;;;;5075415;28;20048;-75
2022/03/25 02:21:54;;;;;;;119.18;64.10;;;2.20;1.00;;;;;;5075213;28;20131;-76
2022/03/25 02:24:35;;;;;;;122.72;63.33;;;2.30;1.00;;;;;;5059147;28;20048;-75
2022/03/25 02:27:04;;;;;;;117.95;62.88;;;2.30;1.00;;;;;;5058421;28;20094;-75
2022/03/25 02:29:33;;;;;;;107.38;57.33;;;2.30;1.00;;;;;;5067879;28;20047;-75
2022/03/25 02:32:01;;;;;;;102.38;51.65;;;2.40;1.00;;;;;;5078756;28;20040;-74
2022/03/25 02:34:29;;;;;;;99.70;47.88;;;2.40;1.00;;;;;;5096443;28;20445;-75
2022/03/25 02:36:58;;;;;;;94.53;47.90;;;2.30;1.00;;;;;;5083265;28;20481;-75
2022/03/25 02:39:27;;;;;;;104.03;53.55;;;2.30;1.00;;;;;;5078478;28;20040;-75
2022/03/25 02:41:55;;;;;;;102.93;52.70;;;2.20;1.00;;;;;;5078601;28;20064;-75
2022/03/25 02:44:23;;;;;;;104.35;53.78;;;2.30;1.00;;;;;;5078282;28;20487;-75
2022/03/25 02:46:52;;;;;;;100.10;51.65;;;2.20;1.00;;;;;;5078176;28;20036;-74
2022/03/25 02:49:21;;;;;;;98.40;50.50;;;2.10;1.00;;;;;;5096263;28;20055;-74
2022/03/25 02:51:49;;;;;;;94.72;49.00;;;2.10;1.00;;;;;;5078611;28;20436;-75
2022/03/25 02:54:18;;;;;;;97.20;52.20;;;2.00;1.00;;;;;;5095821;28;20077;-75
2022/03/25 02:56:45;;;;;;;116.38;59.20;;;2.00;1.00;;;;;;5077995;28;20047;-75
2022/03/25 02:59:12;;;;;;;110.47;58.65;;;2.00;1.00;;;;;;5096196;28;20545;-75
2022/03/25 03:01:43;;;;;;;107.18;57.20;;;2.00;1.00;;;;;;5095855;28;20047;-75
2022/03/25 03:04:11;;;;;;;115.70;59.65;;;2.10;1.00;;;;;;5077880;28;20112;-75
2022/03/25 03:06:38;;;;;;;116.88;60.97;;;2.10;1.00;;;;;;5094633;28;20055;-75
2022/03/25 03:09:06;;;;;;;116.35;59.63;;;2.00;1.00;;;;;;5077737;28;20056;-75
2022/03/25 03:11:35;;;;;;;105.03;55.42;;;2.00;1.00;;;;;;5095765;28;20047;-75
2022/03/25 03:14:03;;;;;;;108.05;54.58;;;1.90;1.00;;;;;;5095860;28;20044;-75
2022/03/25 03:16:30;;;;;;;103.20;55.17;;;1.80;1.00;;;;;;5079012;28;20040;-75
2022/03/25 03:18:58;;;;;;;102.63;50.97;;;1.80;1.00;;;;;;5087295;28;20123;-74
2022/03/25 03:21:25;;;;;;;100.75;50.22;;;1.80;1.00;;;;;;5096704;28;20036;-75
2022/03/25 03:23:53;;;;;;;90.90;47.97;;;1.70;1.00;;;;;;5078531;28;20105;-75
2022/03/25 03:26:21;;;;;;;97.85;49.03;;;1.70;1.00;;;;;;5100252;28;20104;-74
2022/03/25 03:28:50;;;;;;;98.80;50.33;;;1.80;1.00;;;;;;5099805;28;20074;-75
2022/03/25 03:31:17;;;;;;;106.78;53.35;;;1.80;1.00;;;;;;5096107;28;20441;-75
2022/03/25 03:33:45;;;;;;;103.72;52.42;;;1.80;1.00;;;;;;5081814;28;20040;-75
2022/03/25 03:36:12;;;;;;;95.65;50.05;;;1.80;1.00;;;;;;5095553;28;20052;-75
2022/03/25 03:38:40;;;;;;;102.70;51.38;;;1.80;1.00;;;;;;5095235;28;20052;-76
2022/03/25 03:41:07;;;;;;;120.60;59.00;;;1.70;1.00;;;;;;5077028;28;20078;-75
2022/03/25 03:43:35;;;;;;;123.35;62.33;;;1.70;1.00;;;;;;5076963;28;20054;-75
2022/03/25 03:46:05;;;;;;;124.47;61.22;;;1.60;1.00;;;;;;5095147;28;20177;-75
2022/03/25 03:48:32;;;;;;;125.68;59.80;;;1.50;1.00;;;;;;5076809;28;20483;-75
2022/03/25 03:51:00;;;;;;;118.65;61.42;;;1.40;1.00;;;;;;5095410;28;20032;-75
2022/03/25 03:53:28;;;;;;;120.82;60.53;;;1.40;1.00;;;;;;5094854;28;20060;-75
2022/03/25 03:55:55;;;;;;;111.15;59.17;;;1.40;1.00;;;;;;5095353;28;20050;-74
2022/03/25 03:58:23;;;;;;;107.03;56.67;;;1.40;1.00;;;;;;5094763;28;20388;-74
2022/03/25 04:00:51;;;;;;;99.53;50.67;;;1.40;1.00;;;;;;5094993;28;20048;-75
2022/03/25 04:03:20;;;;;;;87.13;42.78;;;1.40;1.00;;;;;;5094480;28;20119;-74
2022/03/25 04:05:47;;;;;;;89.45;43.35;;;1.40;1.00;;;;;;5095761;28;20052;-74
2022/03/25 04:08:15;;;;;;;100.72;49.22;;;1.40;1.00;;;;;;5094865;28;20048;-75
2022/03/25 04:10:43;;;;;;;111.22;55.17;;;1.40;1.00;;;;;;5094883;28;20342;-75
2022/03/25 04:13:10;;;;;;;106.72;51.47;;;1.40;1.00;;;;;;5094570;28;20040;-75
2022/03/25 04:15:38;;;;;;;100.45;49.38;;;1.30;1.00;;;;;;5088276;28;20490;-75
2022/03/25 04:18:05;;;;;;;106.15;51.40;;;1.30;1.00;;;;;;5076365;28;20550;-75
2022/03/25 04:20:35;;;;;;;101.72;52.63;;;1.30;1.00;;;;;;5076604;28;20082;-75
2022/03/25 04:23:02;;;;;;;99.57;55.15;;;1.20;1.00;;;;;;5094620;28;20372;-74
2022/03/25 04:25:30;;;;;;;95.90;54.45;;;1.20;1.00;;;;;;5076156;28;20048;-75
2022/03/25 04:27:59;;;;;;;152.82;80.47;;;1.20;1.00;;;;;;5094440;28;20042;-75
2022/03/25 04:30:28;;;;;;;109.22;57.88;;;1.20;1.00;;;;;;5076002;28;20048;-75
2022/03/25 04:32:56;;;;;;;103.82;57.45;;;1.00;1.00;;;;;;5094239;28;20032;-74
2022/03/25 04:35:23;;;;;;;109.82;58.38;;;1.00;1.00;;;;;;5076796;28;20055;-74
2022/03/25 04:37:52;;;;;;;112.32;60.25;;;1.00;1.00;;;;;;5094257;28;20052;-74
2022/03/25 04:40:23;;;;;;;124.78;69.88;;;1.00;1.00;;;;;;5094134;28;20044;-74
2022/03/25 04:42:52;;;;;;;137.60;76.82;;;1.10;1.00;;;;;;5094113;28;20040;-74
2022/03/25 04:45:21;;;;;;;131.48;69.82;;;1.00;1.00;;;;;;5076807;28;20067;-74
2022/03/25 04:47:50;;;;;;;115.22;62.72;;;1.00;1.00;;;;;;5078126;28;20060;-74
2022/03/25 04:50:18;;;;;;;124.53;64.90;;;1.00;1.00;;;;;;5095532;28;20054;-74
2022/03/25 04:52:45;;;;;;;108.72;56.75;;;1.00;1.00;;;;;;5077462;28;20139;-74
2022/03/25 04:55:15;;;;;;;118.82;61.47;;;1.00;1.00;;;;;;5095350;28;20191;-75
2022/03/25 04:57:44;;;;;;;129.50;64.63;;;1.00;1.00;;;;;;5095639;28;20059;-74
2022/03/25 05:00:13;;;;;;;125.57;66.50;;;1.10;1.00;;;;;;5077197;28;20044;-75
2022/03/25 05:02:41;;;;;;;134.40;65.20;;;1.20;1.00;;;;;;5075248;28;20050;-75
2022/03/25 05:05:09;;;;;;;120.57;60.35;;;1.20;1.00;;;;;;5076166;28;20135;-75
2022/03/25 05:07:36;;;;;;;123.43;59.75;;;1.20;1.00;;;;;;5075490;28;20062;-76
2022/03/25 05:10:05;;;;;;;125.00;63.80;;;1.20;1.00;;;;;;5076295;28;20055;-75
2022/03/25 05:12:34;;;;;;;161.65;78.35;;;1.20;1.00;;;;;;5074797;28;20036;-75
2022/03/25 05:15:01;;;;;;;136.07;63.55;;;1.30;1.00;;;;;;5076066;28;20071;-75
2022/03/25 05:17:29;;;;;;;119.28;56.67;;;1.40;1.00;;;;;;5093759;28;20510;-74
2022/03/25 05:19:56;;;;;;;98.47;48.90;;;1.50;1.00;;;;;;5094469;28;20551;-74
2022/03/25 05:22:24;;;;;;;94.35;46.22;;;1.60;1.00;;;;;;5076017;28;20097;-75
2022/03/25 05:24:51;;;;;;;91.30;47.33;;;1.70;1.00;;;;;;5093572;28;20055;-75
2022/03/25 05:27:19;;;;;;;101.25;51.92;;;1.80;1.00;;;;;;5093136;28;20164;-73
2022/03/25 05:29:48;;;;;;;102.15;53.00;;;1.90;1.00;;;;;;5093051;28;20156;-74
2022/03/25 05:32:16;;;;;;;173.77;83.97;;;1.90;1.00;;;;;;5092925;28;20036;-74
2022/03/25 05:34:43;;;;;;;124.78;66.07;;;1.90;1.00;;;;;;5093517;28;20139;-74
2022/03/25 05:37:11;;;;;;;164.27;84.45;;;2.10;1.00;;;;;;5093735;28;20374;-75
2022/03/25 05:39:39;;;;;;;208.38;100.18;;;2.10;1.00;;;;;;5086857;28;20040;-75
2022/03/25 05:42:06;;;;;;;204.98;99.55;;;2.20;1.00;;;;;;5093069;28;20130;-75
2022/03/25 05:44:34;;;;;;;173.35;87.43;;;2.30;1.00;;;;;;5092744;28;20048;-75
2022/03/25 05:47:03;;;;;;;131.15;73.22;;;2.40;1.00;;;;;;5078756;28;20058;-75
2022/03/25 05:49:31;;;;;;;130.60;71.65;;;2.50;1.00;;;;;;5094336;28;20376;-74
2022/03/25 05:51:58;;;;;;;128.23;67.95;;;2.60;1.00;;;;;;5094265;28;20513;-74
2022/03/25 05:54:26;;;;;;;141.63;69.68;;;2.70;1.00;;;;;;5075259;28;20054;-74
2022/03/25 05:56:54;;;;;;;134.50;71.28;;;2.80;1.00;;;;;;5094017;28;20208;-75
2022/03/25 05:59:21;;;;;;;149.35;75.40;;;3.00;1.00;;;;;;5093774;28;20402;-74
2022/03/25 06:01:48;;;;;;;143.13;76.10;;;3.20;1.00;;;;;;5078070;28;20117;-75
2022/03/25 06:04:19;;;;;;;143.55;75.25;;;3.40;1.00;;;;;;5076412;28;20448;-75
2022/03/25 06:06:47;;;;;;;142.25;74.55;;;3.60;1.00;;;;;;5094746;28;20429;-75
2022/03/25 06:09:14;;;;;;;124.63;63.90;;;3.70;1.00;;;;;;5095076;28;20043;-74
2022/03/25 06:11:41;;;;;;;101.05;55.20;;;3.90;1.00;;;;;;5076950;28;20051;-75
2022/03/25 06:14:09;;;;;;;104.35;53.92;;;4.20;1.00;;;;;;5074369;28;20048;-76
2022/03/25 06:16:37;;;;;;;107.90;57.15;;;4.40;1.00;;;;;;5073676;28;20401;-75
2022/03/25 06:19:04;;;;;;;107.00;57.60;;;4.60;1.00;;;;;;5074192;28;20163;-75
2022/03/25 06:21:34;;;;;;;113.78;61.88;;;4.90;1.00;;;;;;5062526;28;20040;-75
2022/03/25 06:24:01;;;;;;;127.88;63.72;;;5.00;1.00;;;;;;5068723;28;20146;-75
2022/03/25 06:26:29;;;;;;;113.88;64.88;;;5.30;1.00;;;;;;5077887;28;20051;-75
2022/03/25 06:28:56;;;;;;;126.38;68.55;;;5.50;1.00;;;;;;5096147;28;20032;-75
2022/03/25 06:31:24;;;;;;;135.65;68.72;;;5.70;1.00;;;;;;5096314;28;20040;-75
2022/03/25 06:33:51;;;;;;;132.98;71.65;;;5.80;1.00;;;;;;5096179;28;20039;-76
2022/03/25 06:36:19;;;;;;;126.40;72.32;;;6.10;1.00;;;;;;5077842;28;20060;-76
2022/03/25 06:38:48;;;;;;;134.30;71.80;;;6.40;1.00;;;;;;5077522;28;20422;-76
2022/03/25 06:41:16;;;;;;;132.13;70.78;;;6.70;1.00;;;;;;5077186;28;20040;-75
2022/03/25 06:43:44;;;;;;;179.05;77.15;;;7.10;1.00;;;;;;5076695;28;20491;-76
2022/03/25 06:46:12;;;;;;;131.93;73.13;;;7.40;1.00;;;;;;5096090;28;20040;-75
2022/03/25 06:48:40;;;;;;;128.23;68.60;;;7.60;1.00;;;;;;5095518;28;20052;-76
2022/03/25 06:51:08;;;;;;;127.93;69.43;;;7.70;1.00;;;;;;5084735;28;20127;-76
2022/03/25 06:53:36;;;;;;;126.40;69.60;;;8.00;1.00;;;;;;5095491;28;20036;-77
2022/03/25 06:56:05;;;;;;;136.80;68.55;;;8.30;1.00;;;;;;5095582;28;20056;-76
2022/03/25 06:58:34;;;;;;;126.10;67.15;;;8.50;1.00;;;;;;5095503;28;20043;-76
2022/03/25 07:01:02;;;;;;;118.85;63.65;;;8.70;1.00;;;;;;5077935;28;20097;-76
2022/03/25 07:03:31;;;;;;;99.78;51.33;;;9.00;1.00;;;;;;5095441;28;20047;-76
2022/03/25 07:06:00;;;;;;;88.57;50.58;;;9.20;1.00;;;;;;5096000;28;20046;-76
2022/03/25 07:08:30;;;;;;;97.25;52.15;;;9.30;1.00;;;;;;5095616;28;20047;-77
2022/03/25 07:10:59;;;;;;;103.35;54.50;;;9.60;1.00;;;;;;5096180;28;20048;-76
2022/03/25 07:13:28;;;;;;;95.47;50.42;;;9.90;1.00;;;;;;5082137;28;20044;-74
2022/03/25 07:15:56;;;;;;;80.20;47.92;;;10.20;1.00;;;;;;5076103;28;20079;-75
2022/03/25 07:18:23;;;;;;;102.65;51.03;;;10.50;1.00;;;;;;5085059;28;20050;-76
2022/03/25 07:20:51;;;;;;;90.50;52.83;;;10.50;1.00;;;;;;5081713;28;20502;-77
2022/03/25 07:23:18;;;;;;;93.97;51.75;;;10.60;1.00;;;;;;5080891;28;20052;-75
2022/03/25 07:25:46;;;;;;;97.43;52.75;;;10.50;1.00;;;;;;5075792;28;20438;-76
2022/03/25 07:28:14;;;;;;;96.30;53.08;;;10.50;1.00;;;;;;5058402;28;20040;-76
2022/03/25 07:30:43;;;;;;;87.22;53.50;;;10.70;1.00;;;;;;5094305;28;20116;-75
2022/03/25 07:33:11;;;;;;;91.93;51.58;;;10.90;1.00;;;;;;5080567;28;20114;-76
2022/03/25 07:35:38;;;;;;;91.55;53.88;;;11.30;1.00;;;;;;5076273;28;20048;-76
2022/03/25 07:38:07;;;;;;;88.20;54.38;;;11.60;1.00;;;;;;5061739;28;20048;-76
2022/03/25 07:40:35;;;;;;;98.18;53.08;;;11.90;1.00;;;;;;5077933;28;20052;-75
2022/03/25 07:43:03;;;;;;;91.03;54.88;;;12.00;1.00;;;;;;5078541;28;20047;-76
2022/03/25 07:45:30;;;;;;;99.28;56.45;;;12.10;1.00;;;;;;5075351;28;20056;-75
2022/03/25 07:47:59;;;;;;;87.93;53.22;;;12.40;1.00;;;;;;5077196;28;20041;-76
2022/03/25 07:50:27;;;;;;;94.18;51.35;;;12.50;1.00;;;;;;5077149;28;20147;-76
2022/03/25 07:52:55;;;;;;;93.50;51.30;;;12.70;1.00;;;;;;5080102;28;20040;-77
2022/03/25 07:55:23;;;;;;;96.03;51.40;;;12.90;1.00;;;;;;5074983;28;20055;-77
2022/03/25 07:57:51;;;;;;;94.53;52.47;;;13.20;1.00;;;;;;5077484;28;20064;-77
2022/03/25 08:00:19;;;;;;;90.10;50.42;;;13.30;1.00;;;;;;5075981;28;20131;-77
2022/03/25 08:02:48;;;;;;;87.20;53.38;;;13.50;1.00;;;;;;5075015;28;20041;-77
2022/03/25 08:05:17;;;;;;;86.07;51.47;;;13.70;1.00;;;;;;5075272;28;20048;-77
2022/03/25 08:07:48;;;;;;;85.70;49.25;;;13.90;1.00;;;;;;5074782;28;20151;-76
2022/03/25 08:10:17;;;;;;;85.70;48.70;;;14.00;1.00;;;;;;5075105;28;20127;-76
2022/03/25 08:12:45;;;;;;;76.30;45.72;;;14.10;1.00;;;;;;5074871;28;20499;-75
2022/03/25 08:15:13;;;;;;;66.90;42.25;;;14.30;1.00;;;;;;5069187;28;20044;-77
2022/03/25 08:17:52;;;;;;;70.63;41.22;;;14.10;1.00;;;;;;5057321;28;20114;-76
2022/03/25 08:20:27;;;;;;;66.10;41.83;;;14.10;1.00;;;;;;5065720;28;20045;-77
2022/03/25 08:22:56;;;;;;;63.28;41.33;;;14.30;1.00;;;;;;5058994;28;20489;-77
2022/03/25 08:28:09;;;;;;;65.87;41.53;;;14.60;1.00;;;;;;5058483;28;20059;-76
2022/03/25 08:30:37;;;;;;;99.90;45.58;;;14.70;1.00;;;;;;5059600;28;20044;-75
2022/03/25 08:33:05;;;;;;;67.85;41.78;;;14.80;1.00;;;;;;5056421;28;20045;-75
2022/03/25 08:35:34;;;;;;;63.97;41.20;;;14.80;1.00;;;;;;5058638;28;20408;-76
2022/03/25 08:38:02;;;;;;;62.28;42.95;;;14.90;1.00;;;;;;5056182;28;20067;-77
2022/03/25 08:40:32;;;;;;;65.07;38.70;;;15.00;1.00;;;;;;5054956;28;20048;-76
2022/03/25 08:43:01;;;;;;;60.17;34.78;;;15.10;1.00;;;;;;5053436;28;20045;-76
2022/03/25 08:45:29;;;;;;;56.38;34.03;;;15.20;1.00;;;;;;5056109;28;20446;-76
2022/03/25 08:47:56;;;;;;;55.47;34.72;;;15.20;1.00;;;;;;5053845;28;20466;-76
2022/03/25 08:50:24;;;;;;;54.58;34.25;;;15.30;1.00;;;;;;5054548;28;20037;-77
2022/03/25 08:52:54;;;;;;;49.83;32.25;;;15.40;1.00;;;;;;5053728;28;20041;-77
2022/03/25 08:55:22;;;;;;;55.63;33.72;;;15.50;1.00;;;;;;5053990;28;20069;-77
2022/03/25 08:57:50;;;;;;;55.55;31.30;;;15.70;1.00;;;;;;5053640;28;20049;-78
2022/03/25 09:00:19;;;;;;;44.92;27.67;;;15.80;1.00;;;;;;5053681;28;20041;-77
2022/03/25 09:02:48;;;;;;;37.20;22.30;;;15.60;1.00;;;;;;5053418;28;20088;-76
2022/03/25 09:05:16;;;;;;;35.22;23.17;;;15.70;1.00;;;;;;5052978;28;20530;-78
2022/03/25 09:07:44;;;;;;;35.95;21.30;;;15.80;1.00;;;;;;5053943;28;20045;-77
2022/03/25 09:10:16;;;;;;;35.95;21.88;;;15.90;1.00;;;;;;5054021;28;20049;-76
2022/03/25 09:12:44;;;;;;;33.92;21.45;;;16.00;1.00;;;;;;5052585;28;20412;-77
2022/03/25 09:15:14;;;;;;;34.95;21.67;;;16.20;1.00;;;;;;5052750;28;20033;-77
2022/03/25 09:17:42;;;;;;;35.28;22.17;;;16.20;1.00;;;;;;5054087;28;20389;-77
2022/03/25 09:20:10;;;;;;;33.47;20.30;;;16.30;1.00;;;;;;5055982;28;20041;-78
2022/03/25 09:22:37;;;;;;;35.38;19.35;;;16.40;1.00;;;;;;5052375;28;20051;-77
2022/03/25 09:25:07;;;;;;;27.38;18.65;;;16.50;1.00;;;;;;5053909;28;20059;-77
2022/03/25 09:27:37;;;;;;;31.90;18.55;;;16.50;1.00;;;;;;5055365;28;20060;-77
2022/03/25 09:30:05;;;;;;;29.73;19.33;;;16.30;1.00;;;;;;5070285;28;20091;-76
2022/03/25 09:32:33;;;;;;;31.55;20.15;;;16.30;1.00;;;;;;5065032;28;20047;-76
2022/03/25 09:35:09;;;;;;;34.08;18.92;;;16.30;1.00;;;;;;5065667;28;20052;-76
2022/03/25 09:37:38;;;;;;;26.52;18.08;;;16.30;1.00;;;;;;5070090;28;20052;-76
2022/03/25 09:40:08;;;;;;;32.75;18.90;;;16.30;1.00;;;;;;5091050;28;20503;-77
2022/03/25 09:42:38;;;;;;;36.08;18.15;;;16.40;1.00;;;;;;5073523;28;20055;-78
2022/03/25 09:45:09;;;;;;;29.88;18.63;;;16.40;1.00;;;;;;5073838;28;20492;-77
2022/03/25 09:47:37;;;;;;;27.25;17.75;;;16.40;1.00;;;;;;5072444;28;20408;-77
2022/03/25 09:50:06;;;;;;;31.00;18.60;;;16.40;1.00;;;;;;5073865;28;20147;-77
2022/03/25 09:52:36;;;;;;;38.75;18.38;;;16.60;1.00;;;;;;5076265;28;20044;-77
2022/03/25 09:55:04;;;;;;;32.33;18.38;;;16.70;1.00;;;;;;5074202;28;20545;-78
2022/03/25 09:57:33;;;;;;;30.05;17.15;;;16.80;1.00;;;;;;5072156;28;20098;-77
2022/03/25 10:00:02;;;;;;;36.78;18.48;;;16.80;1.00;;;;;;5076926;28;20048;-78
2022/03/25 10:02:39;;;;;;;33.05;18.55;;;17.00;1.00;;;;;;5079001;28;20080;-77
2022/03/25 10:05:16;;;;;;;28.67;18.17;;;17.10;1.00;;;;;;5077090;28;20044;-77
2022/03/25 10:07:47;;;;;;;34.53;19.58;;;17.30;1.00;;;;;;5075633;28;20083;-77
2022/03/25 10:10:16;;;;;;;33.78;18.95;;;17.30;1.00;;;;;;5075630;28;20446;-76
2022/03/25 10:12:45;;;;;;;30.45;17.88;;;17.30;1.00;;;;;;5076519;28;20041;-77
2022/03/25 10:15:17;;;;;;;34.70;18.40;;;17.20;1.00;;;;;;5069408;28;20491;-77
2022/03/25 10:17:53;;;;;;;24.55;17.10;;;17.20;1.00;;;;;;5057341;28;20116;-77
2022/03/25 10:20:23;;;;;;;26.30;18.25;;;17.20;1.00;;;;;;5056955;28;20065;-77
2022/03/25 10:23:05;;;;;;;26.83;17.45;;;17.30;1.00;;;;;;5056823;28;20053;-77
2022/03/25 10:25:34;;;;;;;29.52;18.48;;;17.40;1.00;;;;;;5057164;28;20048;-77
2022/03/25 10:28:02;;;;;;;31.42;19.40;;;17.40;1.00;;;;;;5055262;28;20047;-77
2022/03/25 10:30:40;;;;;;;28.73;18.30;;;17.40;1.00;;;;;;5057080;28;20041;-77
2022/03/25 10:33:12;;;;;;;29.20;17.92;;;17.60;1.00;;;;;;5056909;28;20037;-77
2022/03/25 10:36:01;;;;;;;27.85;17.20;;;17.70;1.00;;;;;;5056912;28;20055;-78
2022/03/25 10:38:40;;;;;;;26.30;17.73;;;17.80;1.00;;;;;;5070956;28;20052;-77
2022/03/25 10:41:08;;;;;;;27.83;16.55;;;17.80;1.00;;;;;;5074353;28;20052;-77
2022/03/25 10:43:35;;;;;;;36.75;18.55;;;17.80;1.00;;;;;;5082932;28;20036;-78
2022/03/25 10:46:04;;;;;;;35.03;17.60;;;17.80;1.00;;;;;;5077031;28;20041;-77
2022/03/25 10:48:32;;;;;;;31.85;17.00;;;17.90;1.00;;;;;;5059143;28;20045;-77
2022/03/25 10:51:03;;;;;;;27.05;17.15;;;18.00;1.00;;;;;;5076928;28;20048;-77
2022/03/25 10:53:32;;;;;;;25.23;15.73;;;18.00;1.00;;;;;;5058599;28;20053;-77
2022/03/25 10:56:01;;;;;;;22.73;15.85;;;18.00;1.00;;;;;;5091285;28;20206;-78
2022/03/25 10:58:29;;;;;;;21.38;15.05;;;17.80;1.00;;;;;;5060374;28;20044;-78
2022/03/25 11:00:56;;;;;;;23.58;16.65;;;17.60;1.00;;;;;;5088146;28;20036;-77
2022/03/25 11:03:26;;;;;;;21.83;15.43;;;17.60;1.00;;;;;;5097996;28;20036;-77
2022/03/25 11:05:54;;;;;;;24.73;14.15;;;17.80;1.00;;;;;;5098303;28;20039;-78
2022/03/25 11:08:22;;;;;;;25.60;15.57;;;17.80;1.00;;;;;;5079808;28;20070;-78
2022/03/25 11:10:50;;;;;;;23.27;15.52;;;17.90;1.00;;;;;;5058249;28;20064;-78
2022/03/25 11:13:18;;;;;;;31.30;15.13;;;18.00;1.00;;;;;;5065766;28;20040;-76
2022/03/25 11:15:47;;;;;;;20.92;13.98;;;18.10;1.00;;;;;;5096556;28;20048;-78
2022/03/25 11:18:18;;;;;;;21.13;12.02;;;18.20;1.00;;;;;;5097208;28;20138;-77
2022/03/25 11:20:47;;;;;;;16.45;10.07;;;18.30;1.00;;;;;;5078730;28;20558;-76
2022/03/25 11:23:19;;;;;;;14.48;8.65;;;18.40;1.00;;;;;;5095331;28;20097;-77
2022/03/25 11:25:57;;;;;;;15.07;7.40;;;18.40;1.00;;;;;;5090743;28;20491;-76
2022/03/25 11:28:30;;;;;;;16.30;7.57;;;18.40;1.00;;;;;;5095279;28;20052;-77
2022/03/25 11:30:59;;;;;;;18.95;7.45;;;18.50;1.00;;;;;;5094697;28;20036;-78
2022/03/25 11:33:27;;;;;;;11.02;7.07;;;18.40;1.00;;;;;;5095406;28;20158;-78
2022/03/25 11:36:14;;;;;;;16.38;7.80;;;18.40;1.00;;;;;;5095850;28;20380;-77
2022/03/25 11:38:41;;;;;;;17.20;7.82;;;18.60;1.00;;;;;;5085960;28;20125;-76
2022/03/25 11:41:22;;;;;;;14.27;8.20;;;18.70;1.00;;;;;;5077087;28;20472;-77
2022/03/25 11:44:20;;;;;;;10.13;6.25;;;18.70;1.00;;;;;;5094932;28;20039;-77
2022/03/25 11:47:17;;;;;;;13.27;7.07;;;18.60;1.00;;;;;;5095005;28;20043;-76
2022/03/25 11:49:45;;;;;;;16.85;8.07;;;18.50;1.00;;;;;;5091985;28;20047;-76
2022/03/25 11:52:33;;;;;;;14.63;7.40;;;18.50;1.00;;;;;;5094642;28;20100;-77
2022/03/25 11:55:02;;;;;;;18.63;8.50;;;18.60;1.00;;;;;;5105180;28;20044;-77
2022/03/25 11:57:32;;;;;;;17.80;7.55;;;18.70;1.00;;;;;;5090443;28;20052;-76
2022/03/25 12:00:02;;;;;;;12.35;7.38;;;18.70;1.00;;;;;;5097297;28;20431;-76
2022/03/25 12:02:32;;;;;;;15.20;8.45;;;18.70;1.00;;;;;;5094606;28;20136;-78
2022/03/25 12:05:01;;;;;;;11.95;7.18;;;18.80;1.00;;;;;;5094996;28;20044;-77
2022/03/25 12:07:29;;;;;;;17.23;9.00;;;18.90;1.00;;;;;;5095729;28;20544;-78
2022/03/25 12:09:58;;;;;;;9.10;5.50;;;18.90;1.00;;;;;;5090291;28;20148;-77
2022/03/25 12:13:02;;;;;;;12.35;6.28;;;18.80;1.00;;;;;;5093383;28;20410;-78
2022/03/25 12:15:43;;;;;;;12.98;6.38;;;18.60;1.00;;;;;;5069665;28;20542;-77
2022/03/25 12:18:39;;;;;;;9.18;5.53;;;18.40;1.00;;;;;;5095179;28;20050;-77
2022/03/25 12:21:35;;;;;;;12.32;6.60;;;18.40;1.00;;;;;;5095630;28;20090;-77
2022/03/25 12:24:03;;;;;;;10.40;6.38;;;18.30;1.00;;;;;;5095352;28;20040;-77
2022/03/25 12:26:35;;;;;;;16.95;6.60;;;18.40;1.00;;;;;;5094679;28;20036;-76
2022/03/25 12:29:03;;;;;;;13.85;6.15;;;18.30;1.00;;;;;;5094685;28;20054;-76
2022/03/25 12:31:30;;;;;;;12.63;6.28;;;18.30;1.00;;;;;;5075296;28;20109;-76
2022/03/25 12:34:00;;;;;;;11.63;6.30;;;18.20;1.00;;;;;;5093972;28;20055;-76
2022/03/25 12:36:34;;;;;;;13.82;7.78;;;18.20;1.00;;;;;;5093382;28;20080;-76
2022/03/25 12:39:02;;;;;;;13.80;7.60;;;18.20;1.00;;;;;;5077893;28;20415;-76
2022/03/25 12:41:31;;;;;;;12.48;5.93;;;18.20;1.00;;;;;;5094838;28;20439;-76
2022/03/25 12:44:02;;;;;;;11.52;6.45;;;18.20;1.00;;;;;;5094822;28;20032;-76
2022/03/25 12:46:31;;;;;;;16.42;6.95;;;18.10;1.00;;;;;;5094464;28;20047;-77
2022/03/25 12:49:04;;;;;;;15.73;8.20;;;18.10;1.00;;;;;;5093852;28;20056;-76
2022/03/25 12:51:31;;;;;;;12.07;7.63;;;18.20;1.00;;;;;;5074105;28;20050;-76